Time;durP1;ratioP1;P1;durP2;ratioP2;P2;SDS_P1;SDS_P2;PMS_P1;PMS_P2;Temp;Humidity;BMP_temperature;BMP_pressure;BME280_temperature;BME280_humidity;BME280_pressure;Samples;Min_cycle;Max_cycle;Signal;HPM_P1;HPM_P2
2022/11/24 00:00:48;;;;;;;;;;;;;;;10.97;100.00;97833.91;5053222;28;19921;-59
2022/11/24 00:03:13;;;;;;;;;;;;;;;11.24;100.00;97834.19;5041069;28;19920;-59
2022/11/24 00:05:38;;;;;;;;;;;;;;;10.95;100.00;97836.59;5043238;28;19921;-59
2022/11/24 00:08:03;;;;;;;;;;;;;;;11.19;100.00;97837.03;5044744;28;19916;-59
2022/11/24 00:10:29;;;;;;;;;;;;;;;10.86;100.00;97843.03;5044106;28;20573;-59
2022/11/24 00:12:54;;;;;;;;;;;;;;;11.08;100.00;97844.50;5042818;28;20312;-59
2022/11/24 00:15:19;;;;;;;;;;;;;;;10.85;100.00;97859.38;5044348;28;19974;-59
2022/11/24 00:17:44;;;;;;;;;;;;;;;10.64;100.00;97863.91;5043786;28;19978;-59
2022/11/24 00:20:09;;;;;;;;;;;;;;;11.04;100.00;97864.44;5044016;28;19929;-59
2022/11/24 00:22:35;;;;;;;;;;;;;;;10.93;100.00;97871.91;5043756;28;19929;-59
2022/11/24 00:25:00;;;;;;;;;;;;;;;10.80;100.00;97871.69;5046463;28;19978;-59
2022/11/24 00:27:25;;;;;;;;;;;;;;;11.23;100.00;97869.44;5045160;28;19920;-59
2022/11/24 00:29:50;;;;;;;;;;;;;;;10.70;100.00;97860.19;5056394;28;19916;-59
2022/11/24 00:32:15;;;;;;;;;;;;;;;10.80;100.00;97876.81;5044592;28;19930;-59
2022/11/24 00:34:41;;;;;;;;;;;;;;;10.91;100.00;97878.88;5043738;28;19940;-59
2022/11/24 00:37:06;;;;;;;;;;;;;;;10.84;100.00;97883.50;5043916;28;19913;-59
2022/11/24 00:39:31;;;;;;;;;;;;;;;10.67;100.00;97896.38;5043487;28;20058;-59
2022/11/24 00:41:57;;;;;;;;;;;;;;;10.83;100.00;97907.59;5044766;28;20011;-59
2022/11/24 00:44:22;;;;;;;;;;;;;;;10.84;100.00;97904.09;5044387;28;19916;-59
2022/11/24 00:46:47;;;;;;;;;;;;;;;10.92;100.00;97910.59;5044530;28;19924;-59
2022/11/24 00:49:12;;;;;;;;;;;;;;;11.00;100.00;97909.31;5044371;28;19996;-59
2022/11/24 00:51:38;;;;;;;;;;;;;;;11.12;100.00;97897.53;5043804;28;19917;-59
2022/11/24 00:54:03;;;;;;;;;;;;;;;11.12;100.00;97907.00;5044327;28;19917;-59
2022/11/24 00:56:28;;;;;;;;;;;;;;;10.95;100.00;97913.88;5043960;28;19924;-59
2022/11/24 00:58:53;;;;;;;;;;;;;;;11.10;100.00;97915.63;5043140;28;20570;-59
2022/11/24 01:01:20;;;;;;;;;;;;;;;11.34;100.00;97911.88;5044365;28;19925;-59
2022/11/24 01:03:46;;;;;;;;;;;;;;;11.25;100.00;97906.28;5043358;28;19923;-59
2022/11/24 01:06:13;;;;;;;;;;;;;;;11.61;100.00;97910.41;5043657;28;19916;-59
2022/11/24 01:08:38;;;;;;;;;;;;;;;11.36;100.00;97904.88;5042840;28;19924;-59
2022/11/24 01:11:14;;;;;;;;;;;;;;;11.35;100.00;97898.91;5044211;28;19916;-59
2022/11/24 01:13:40;;;;;;;;;;;;;;;11.32;100.00;97911.13;5055189;28;19928;-59
2022/11/24 01:16:05;;;;;;;;;;;;;;;11.54;100.00;97906.50;5041658;28;20034;-59
2022/11/24 01:18:31;;;;;;;;;;;;;;;11.22;100.00;97906.47;5074250;28;19921;-59
2022/11/24 01:20:56;;;;;;;;;;;;;;;11.17;100.00;97911.00;5043523;28;19931;-59
2022/11/24 01:23:21;;;;;;;;;;;;;;;11.04;100.00;97915.97;5043581;28;19964;-59
2022/11/24 01:25:46;;;;;;;;;;;;;;;11.28;100.00;97921.59;5043921;28;19959;-59
2022/11/24 01:28:12;;;;;;;;;;;;;;;11.44;100.00;97921.63;5042916;28;19939;-59
2022/11/24 01:30:37;;;;;;;;;;;;;;;11.18;100.00;97932.47;5042879;28;19916;-59
2022/11/24 01:33:03;;;;;;;;;;;;;;;11.30;100.00;97924.91;5042962;28;19951;-59
2022/11/24 01:35:28;;;;;;;;;;;;;;;11.34;100.00;97927.34;5043239;28;19920;-59
2022/11/24 01:37:53;;;;;;;;;;;;;;;11.43;100.00;97919.13;5042621;28;19978;-59
2022/11/24 01:40:18;;;;;;;;;;;;;;;11.33;100.00;97923.09;5041548;28;19921;-59
2022/11/24 01:42:48;;;;;;;;;;;;;;;11.78;100.00;97916.41;5043069;28;19966;-59
2022/11/24 01:45:30;;;;;;;;;;;;;;;11.49;100.00;97906.75;5043673;28;20262;-59
2022/11/24 01:47:55;;;;;;;;;;;;;;;11.45;100.00;97904.44;5042757;28;19916;-59
2022/11/24 01:50:21;;;;;;;;;;;;;;;11.57;100.00;97908.09;5055634;28;20316;-59
2022/11/24 01:52:47;;;;;;;;;;;;;;;11.41;100.00;97913.22;5041155;28;19993;-59
2022/11/24 01:55:14;;;;;;;;;;;;;;;11.52;100.00;97910.91;5042947;28;20026;-60
2022/11/24 01:57:50;;;;;;;;;;;;;;;11.15;100.00;97920.56;5041789;28;19930;-59
2022/11/24 02:00:15;;;;;;;;;;;;;;;11.13;100.00;97924.97;5041910;28;19920;-59
2022/11/24 02:02:41;;;;;;;;;;;;;;;11.36;100.00;97930.66;5042973;28;19928;-59
2022/11/24 02:05:25;;;;;;;;;;;;;;;11.47;100.00;97918.03;5041810;28;19949;-60
2022/11/24 02:07:51;;;;;;;;;;;;;;;10.92;100.00;97926.88;5043581;28;19924;-59
2022/11/24 02:10:16;;;;;;;;;;;;;;;11.15;100.00;97938.59;5041598;28;19920;-59
2022/11/24 02:12:43;;;;;;;;;;;;;;;11.26;100.00;97938.88;5039452;28;19928;-60
2022/11/24 02:15:09;;;;;;;;;;;;;;;11.11;100.00;97939.69;5041148;28;19913;-59
2022/11/24 02:17:34;;;;;;;;;;;;;;;11.13;100.00;97924.13;5041383;28;20582;-59
2022/11/24 02:20:06;;;;;;;;;;;;;;;11.30;100.00;97927.50;5041797;28;19971;-59
2022/11/24 02:22:39;;;;;;;;;;;;;;;11.17;100.00;97934.19;5042015;28;20647;-60
2022/11/24 02:25:07;;;;;;;;;;;;;;;11.80;100.00;97930.88;5042015;28;19958;-59
2022/11/24 02:27:32;;;;;;;;;;;;;;;11.61;100.00;97925.91;5041532;28;20674;-59
2022/11/24 02:29:58;;;;;;;;;;;;;;;11.48;100.00;97924.88;5041106;28;19971;-59
2022/11/24 02:32:23;;;;;;;;;;;;;;;11.33;100.00;97930.81;5042199;28;19924;-59
2022/11/24 02:34:48;;;;;;;;;;;;;;;11.13;100.00;97940.44;5041107;28;19921;-59
2022/11/24 02:37:13;;;;;;;;;;;;;;;11.44;100.00;97939.66;5042110;28;20044;-59
2022/11/24 02:39:39;;;;;;;;;;;;;;;11.45;100.00;97938.75;5041134;28;19924;-59
2022/11/24 02:42:05;;;;;;;;;;;;;;;11.35;100.00;97940.13;5039956;28;20516;-60
2022/11/24 02:44:31;;;;;;;;;;;;;;;11.23;100.00;97940.78;5038667;28;19920;-59
2022/11/24 02:47:00;;;;;;;;;;;;;;;11.28;100.00;97944.78;5039142;28;19920;-59
2022/11/24 02:49:26;;;;;;;;;;;;;;;11.49;100.00;97949.72;5040564;28;19921;-59
2022/11/24 02:51:51;;;;;;;;;;;;;;;11.49;100.00;97947.16;5041219;28;19920;-60
2022/11/24 02:54:16;;;;;;;;;;;;;;;11.29;100.00;97948.22;5040830;28;19917;-60
2022/11/24 02:56:41;;;;;;;;;;;;;;;11.17;100.00;97944.50;5042409;28;19958;-60
2022/11/24 02:59:06;;;;;;;;;;;;;;;11.12;100.00;97954.22;5040347;28;19927;-60
2022/11/24 03:01:32;;;;;;;;;;;;;;;11.06;100.00;97954.53;5041269;28;20024;-60
2022/11/24 03:03:57;;;;;;;;;;;;;;;10.83;100.00;97959.09;5041071;28;20008;-60
2022/11/24 03:06:22;;;;;;;;;;;;;;;10.83;100.00;97964.25;5040806;28;19970;-60
2022/11/24 03:08:47;;;;;;;;;;;;;;;11.27;100.00;97968.06;5041539;28;19925;-60
2022/11/24 03:11:12;;;;;;;;;;;;;;;10.94;100.00;97960.31;5040827;28;20313;-60
2022/11/24 03:13:38;;;;;;;;;;;;;;;10.86;100.00;97973.56;5039537;28;20027;-60
2022/11/24 03:16:06;;;;;;;;;;;;;;;10.79;100.00;97973.03;5042371;28;20028;-60
2022/11/24 03:18:31;;;;;;;;;;;;;;;11.02;100.00;97971.06;5039594;28;20563;-61
2022/11/24 03:20:59;;;;;;;;;;;;;;;11.24;100.00;97971.66;5040545;28;20074;-62
2022/11/24 03:23:25;;;;;;;;;;;;;;;11.18;100.00;97971.94;5041240;28;20015;-62
2022/11/24 03:25:50;;;;;;;;;;;;;;;11.38;100.00;97977.81;5041402;28;20452;-62
2022/11/24 03:28:15;;;;;;;;;;;;;;;11.16;100.00;97978.91;5054231;28;19924;-62
2022/11/24 03:30:40;;;;;;;;;;;;;;;11.09;100.00;97978.41;5041176;28;19920;-62
2022/11/24 03:33:06;;;;;;;;;;;;;;;11.20;100.00;97977.00;5039796;28;19928;-61
2022/11/24 03:35:31;;;;;;;;;;;;;;;11.55;100.00;97976.94;5039458;28;19975;-62
2022/11/24 03:37:57;;;;;;;;;;;;;;;11.13;100.00;97975.66;5041504;28;20392;-61
2022/11/24 03:40:22;;;;;;;;;;;;;;;10.93;100.00;97974.09;5043830;28;20489;-61
2022/11/24 03:42:47;;;;;;;;;;;;;;;11.24;100.00;97978.53;5044756;28;20281;-62
2022/11/24 03:45:13;;;;;;;;;;;;;;;11.12;100.00;97977.41;5045185;28;20561;-61
2022/11/24 03:47:38;;;;;;;;;;;;;;;11.18;100.00;97976.28;5043902;28;19923;-62
2022/11/24 03:50:04;;;;;;;;;;;;;;;11.15;100.00;97990.13;5044779;28;19920;-60
2022/11/24 03:52:29;;;;;;;;;;;;;;;11.02;100.00;97986.53;5042541;28;19943;-61
2022/11/24 03:54:54;;;;;;;;;;;;;;;11.36;100.00;97988.22;5042853;28;20304;-61
2022/11/24 03:57:20;;;;;;;;;;;;;;;11.27;100.00;97991.28;5043384;28;20467;-61
2022/11/24 03:59:45;;;;;;;;;;;;;;;11.35;100.00;97985.72;5042223;28;20939;-61
2022/11/24 04:02:10;;;;;;;;;;;;;;;11.40;100.00;97988.88;5042399;28;19920;-61
2022/11/24 04:04:35;;;;;;;;;;;;;;;11.35;100.00;97988.28;5043575;28;19923;-61
2022/11/24 04:07:01;;;;;;;;;;;;;;;11.04;100.00;98005.31;5045044;28;19917;-62
2022/11/24 04:09:26;;;;;;;;;;;;;;;11.14;100.00;98006.50;5044034;28;20019;-62
2022/11/24 04:14:35;;;;;;;;;;;;;;;11.02;100.00;98014.88;5043072;28;20463;-62
2022/11/24 04:17:01;;;;;;;;;;;;;;;10.92;100.00;98008.47;5043701;28;19917;-61
2022/11/24 04:19:26;;;;;;;;;;;;;;;10.75;100.00;98025.59;5044347;28;19921;-62
2022/11/24 04:21:52;;;;;;;;;;;;;;;10.80;100.00;98031.34;5044797;28;20290;-62
2022/11/24 04:24:17;;;;;;;;;;;;;;;11.29;100.00;98028.94;5043092;28;20031;-62
2022/11/24 04:26:42;;;;;;;;;;;;;;;11.41;100.00;98031.81;5044492;28;20000;-62
2022/11/24 04:29:08;;;;;;;;;;;;;;;11.08;100.00;98035.16;5043372;28;20039;-62
2022/11/24 04:31:33;;;;;;;;;;;;;;;11.09;100.00;98023.94;5042662;28;19925;-61
2022/11/24 04:33:58;;;;;;;;;;;;;;;11.05;100.00;98032.72;5045321;28;19917;-62
2022/11/24 04:36:23;;;;;;;;;;;;;;;10.92;100.00;98034.25;5043654;28;20362;-62
2022/11/24 04:38:50;;;;;;;;;;;;;;;11.17;100.00;98042.41;5043671;28;20405;-62
2022/11/24 04:41:16;;;;;;;;;;;;;;;11.39;100.00;98038.78;5043909;28;20358;-62
2022/11/24 04:43:41;;;;;;;;;;;;;;;11.24;100.00;98041.22;5043022;28;19927;-62
2022/11/24 04:46:07;;;;;;;;;;;;;;;11.77;100.00;98043.69;5043387;28;19920;-62
2022/11/24 04:48:32;;;;;;;;;;;;;;;11.79;100.00;98053.06;5041339;28;20027;-62
2022/11/24 04:50:57;;;;;;;;;;;;;;;11.83;100.00;98053.69;5044135;28;19999;-62
2022/11/24 04:53:23;;;;;;;;;;;;;;;11.50;100.00;98046.81;5044318;28;20047;-62
2022/11/24 04:55:48;;;;;;;;;;;;;;;11.55;100.00;98044.00;5043809;28;19917;-62
2022/11/24 04:58:13;;;;;;;;;;;;;;;11.18;100.00;98061.31;5042303;28;19921;-62
2022/11/24 05:00:38;;;;;;;;;;;;;;;11.02;100.00;98053.50;5043775;28;20304;-62
2022/11/24 05:03:04;;;;;;;;;;;;;;;11.45;100.00;98057.34;5042466;28;20035;-62
2022/11/24 05:05:29;;;;;;;;;;;;;;;10.66;100.00;98060.34;5043996;28;19921;-62
2022/11/24 05:07:55;;;;;;;;;;;;;;;11.33;100.00;98075.16;5042836;28;19926;-62
2022/11/24 05:10:36;;;;;;;;;;;;;;;10.86;100.00;98072.28;5042684;28;19913;-62
2022/11/24 05:13:02;;;;;;;;;;;;;;;10.70;100.00;98076.50;5042231;28;20336;-63
2022/11/24 05:15:27;;;;;;;;;;;;;;;11.33;100.00;98085.47;5043659;28;19921;-62
2022/11/24 05:17:52;;;;;;;;;;;;;;;11.64;100.00;98079.63;5044369;28;19913;-63
2022/11/24 05:20:18;;;;;;;;;;;;;;;11.33;100.00;98076.00;5040658;28;19924;-62
2022/11/24 05:22:43;;;;;;;;;;;;;;;11.90;100.00;98078.28;5055803;28;19924;-63
2022/11/24 05:25:08;;;;;;;;;;;;;;;11.49;100.00;98078.63;5043060;28;19921;-62
2022/11/24 05:27:33;;;;;;;;;;;;;;;11.49;100.00;98073.47;5044002;28;20204;-62
2022/11/24 05:29:59;;;;;;;;;;;;;;;11.61;100.00;98079.75;5042065;28;20359;-64
2022/11/24 05:32:24;;;;;;;;;;;;;;;11.52;100.00;98086.25;5043231;28;20344;-63
2022/11/24 05:34:49;;;;;;;;;;;;;;;11.69;100.00;98101.66;5042993;28;19925;-61
2022/11/24 05:37:14;;;;;;;;;;;;;;;11.57;100.00;98094.56;5043266;28;20010;-62
2022/11/24 05:39:40;;;;;;;;;;;;;;;12.08;100.00;98100.56;5042555;28;19964;-62
2022/11/24 05:44:49;;;;;;;;;;;;;;;11.71;100.00;98110.16;5043276;28;20139;-62
2022/11/24 05:47:14;;;;;;;;;;;;;;;11.35;100.00;98119.75;5043698;28;19920;-62
2022/11/24 05:49:40;;;;;;;;;;;;;;;10.78;100.00;98125.88;5040957;28;19917;-62
2022/11/24 05:52:05;;;;;;;;;;;;;;;10.80;100.00;98129.22;5042252;28;19916;-62
2022/11/24 05:54:30;;;;;;;;;;;;;;;10.88;100.00;98152.06;5054950;28;20547;-63
2022/11/24 05:56:55;;;;;;;;;;;;;;;11.13;100.00;98164.63;5041609;28;19943;-61
2022/11/24 05:59:21;;;;;;;;;;;;;;;10.83;100.00;98164.28;5041337;28;20005;-63
2022/11/24 06:01:46;;;;;;;;;;;;;;;11.42;100.00;98172.69;5040244;28;20019;-62
2022/11/24 06:04:11;;;;;;;;;;;;;;;10.55;100.00;98169.88;5042065;28;20048;-62
2022/11/24 06:06:36;;;;;;;;;;;;;;;11.13;100.00;98187.81;5040846;28;20043;-62
2022/11/24 06:09:01;;;;;;;;;;;;;;;11.01;100.00;98198.69;5040912;28;19917;-62
2022/11/24 06:11:27;;;;;;;;;;;;;;;11.10;100.00;98209.38;5053818;28;19917;-64
2022/11/24 06:13:52;;;;;;;;;;;;;;;10.86;100.00;98205.38;5038572;28;19921;-64
2022/11/24 06:16:17;;;;;;;;;;;;;;;11.30;100.00;98216.19;5042728;28;19921;-64
2022/11/24 06:18:42;;;;;;;;;;;;;;;10.99;100.00;98211.66;5041285;28;19923;-64
2022/11/24 06:21:08;;;;;;;;;;;;;;;11.12;100.00;98223.94;5042650;28;19920;-64
2022/11/24 06:23:33;;;;;;;;;;;;;;;11.50;100.00;98212.66;5042040;28;19917;-64
2022/11/24 06:25:59;;;;;;;;;;;;;;;11.72;100.00;98201.28;5043016;28;20417;-65
2022/11/24 06:28:24;;;;;;;;;;;;;;;11.65;100.00;98198.16;5041042;28;20456;-65
2022/11/24 06:30:49;;;;;;;;;;;;;;;10.68;100.00;98194.19;5042744;28;19921;-65
2022/11/24 06:33:14;;;;;;;;;;;;;;;11.04;100.00;98211.44;5040849;28;20047;-64
2022/11/24 06:35:39;;;;;;;;;;;;;;;11.52;100.00;98210.84;5042732;28;20051;-64
2022/11/24 06:38:06;;;;;;;;;;;;;;;11.44;100.00;98206.94;5038968;28;20003;-64
2022/11/24 06:40:33;;;;;;;;;;;;;;;11.60;100.00;98197.56;5041722;28;19920;-64
2022/11/24 06:42:58;;;;;;;;;;;;;;;11.39;100.00;98198.63;5041804;28;19917;-64
2022/11/24 06:45:23;;;;;;;;;;;;;;;10.88;100.00;98206.16;5041631;28;19917;-65
2022/11/24 06:47:49;;;;;;;;;;;;;;;11.23;100.00;98208.81;5041845;28;19924;-65
2022/11/24 06:50:14;;;;;;;;;;;;;;;11.50;100.00;98216.97;5039646;28;20350;-65
2022/11/24 06:52:39;;;;;;;;;;;;;;;11.81;100.00;98213.72;5042345;28;19921;-65
2022/11/24 06:55:05;;;;;;;;;;;;;;;11.46;100.00;98208.53;5041584;28;20006;-65
2022/11/24 06:57:31;;;;;;;;;;;;;;;11.56;100.00;98221.81;5040311;28;19921;-65
2022/11/24 06:59:57;;;;;;;;;;;;;;;11.17;100.00;98219.41;5042338;28;19917;-65
2022/11/24 07:02:22;;;;;;;;;;;;;;;11.33;100.00;98229.84;5039546;28;19920;-63
2022/11/24 07:04:47;;;;;;;;;;;;;;;11.07;100.00;98245.59;5042432;28;19962;-64
2022/11/24 07:07:13;;;;;;;;;;;;;;;11.55;100.00;98250.28;5039542;28;19956;-64
2022/11/24 07:09:38;;;;;;;;;;;;;;;11.34;100.00;98257.28;5041437;28;19971;-65
2022/11/24 07:12:04;;;;;;;;;;;;;;;11.75;100.00;98262.22;5039039;28;19927;-65
2022/11/24 07:14:30;;;;;;;;;;;;;;;11.90;100.00;98256.31;5039066;28;19921;-65
2022/11/24 07:16:55;;;;;;;;;;;;;;;11.60;100.00;98254.28;5040135;28;19928;-64
2022/11/24 07:19:20;;;;;;;;;;;;;;;11.66;100.00;98256.59;5040459;28;19926;-65
2022/11/24 07:21:45;;;;;;;;;;;;;;;12.06;100.00;98261.56;5042172;28;19998;-64
2022/11/24 07:24:10;;;;;;;;;;;;;;;11.54;100.00;98248.59;5043055;28;19931;-65
2022/11/24 07:26:36;;;;;;;;;;;;;;;11.71;100.00;98257.19;5040318;28;19921;-65
2022/11/24 07:29:02;;;;;;;;;;;;;;;11.43;100.00;98267.16;5039449;28;19963;-65
2022/11/24 07:31:27;;;;;;;;;;;;;;;11.20;100.00;98270.78;5041263;28;19924;-64
2022/11/24 07:33:53;;;;;;;;;;;;;;;11.88;100.00;98273.63;5041182;28;19920;-65
2022/11/24 07:36:18;;;;;;;;;;;;;;;11.56;100.00;98265.66;5042054;28;19920;-65
2022/11/24 07:38:44;;;;;;;;;;;;;;;11.58;100.00;98263.00;5040510;28;19921;-65
2022/11/24 07:41:09;;;;;;;;;;;;;;;11.79;100.00;98274.03;5041266;28;19925;-65
2022/11/24 07:43:35;;;;;;;;;;;;;;;11.50;100.00;98271.13;5039370;28;19966;-64
2022/11/24 07:46:00;;;;;;;;;;;;;;;11.77;100.00;98270.69;5041308;28;19917;-65
2022/11/24 07:48:25;;;;;;;;;;;;;;;12.05;100.00;98276.22;5041226;28;19913;-65
2022/11/24 07:50:51;;;;;;;;;;;;;;;11.88;100.00;98273.63;5039826;28;20443;-65
2022/11/24 07:53:16;;;;;;;;;;;;;;;12.13;100.00;98278.41;5041799;28;19924;-65
2022/11/24 07:55:41;;;;;;;;;;;;;;;12.42;100.00;98276.94;5039102;28;19921;-65
2022/11/24 07:58:07;;;;;;;;;;;;;;;12.23;100.00;98271.06;5041952;28;20006;-65
2022/11/24 08:00:32;;;;;;;;;;;;;;;12.02;100.00;98281.53;5039447;28;19960;-65
2022/11/24 08:02:57;;;;;;;;;;;;;;;11.86;100.00;98283.16;5041068;28;19923;-64
2022/11/24 08:05:22;;;;;;;;;;;;;;;11.23;100.00;98292.13;5053588;28;20408;-64
2022/11/24 08:07:48;;;;;;;;;;;;;;;11.81;100.00;98303.19;5040781;28;20281;-65
2022/11/24 08:10:13;;;;;;;;;;;;;;;11.87;100.00;98297.72;5039453;28;19920;-64
2022/11/24 08:12:38;;;;;;;;;;;;;;;12.16;100.00;98293.75;5040004;28;19974;-65
2022/11/24 08:15:03;;;;;;;;;;;;;;;11.81;100.00;98298.84;5042089;28;20390;-64
2022/11/24 08:17:29;;;;;;;;;;;;;;;12.08;100.00;98285.53;5041232;28;19956;-64
2022/11/24 08:19:54;;;;;;;;;;;;;;;12.16;100.00;98295.47;5040522;28;19924;-65
2022/11/24 08:22:19;;;;;;;;;;;;;;;12.06;100.00;98295.94;5049797;28;20023;-66
2022/11/24 08:24:47;;;;;;;;;;;;;;;12.44;100.00;98295.78;5041349;28;19920;-64
2022/11/24 08:27:13;;;;;;;;;;;;;;;12.68;100.00;98293.69;5044843;28;20310;-65
2022/11/24 08:29:38;;;;;;;;;;;;;;;12.46;100.00;98281.03;5043650;28;19921;-66
2022/11/24 08:32:03;;;;;;;;;;;;;;;12.25;100.00;98290.72;5045639;28;20321;-65
2022/11/24 08:34:29;;;;;;;;;;;;;;;12.12;100.00;98303.38;5044803;28;19923;-65
2022/11/24 08:36:54;;;;;;;;;;;;;;;11.78;100.00;98306.75;5045412;28;19952;-66
2022/11/24 08:39:19;;;;;;;;;;;;;;;11.96;100.00;98307.63;5044105;28;19960;-66
2022/11/24 08:41:44;;;;;;;;;;;;;;;12.45;100.00;98306.94;5045090;28;19971;-65
2022/11/24 08:44:10;;;;;;;;;;;;;;;11.90;100.00;98308.75;5044132;28;20052;-66
2022/11/24 08:46:35;;;;;;;;;;;;;;;12.13;100.00;98324.88;5046460;28;19962;-66
2022/11/24 08:49:00;;;;;;;;;;;;;;;11.90;100.00;98318.25;5043538;28;20436;-66
2022/11/24 08:51:26;;;;;;;;;;;;;;;11.92;100.00;98337.06;5044390;28;19917;-66
2022/11/24 08:53:54;;;;;;;;;;;;;;;11.54;100.00;98339.72;5044720;28;19916;-66
2022/11/24 08:56:19;;;;;;;;;;;;;;;11.72;100.00;98336.25;5076358;27;19960;-66
2022/11/24 08:58:45;;;;;;;;;;;;;;;12.00;100.00;98339.31;5043586;28;20479;-65
2022/11/24 09:01:12;;;;;;;;;;;;;;;12.03;100.00;98342.53;5042254;28;20497;-65
2022/11/24 09:03:38;;;;;;;;;;;;;;;11.62;100.00;98350.47;5040929;28;19924;-65
2022/11/24 09:06:03;;;;;;;;;;;;;;;11.37;100.00;98357.69;5043168;28;20020;-65
2022/11/24 09:08:29;;;;;;;;;;;;;;;11.80;100.00;98363.44;5042833;28;20015;-65
2022/11/24 09:10:58;;;;;;;;;;;;;;;12.01;100.00;98349.53;5042368;28;19924;-65
2022/11/24 09:13:23;;;;;;;;;;;;;;;11.57;100.00;98349.03;5042165;28;20019;-65
2022/11/24 09:15:48;;;;;;;;;;;;;;;11.92;100.00;98360.28;5042713;28;20047;-65
2022/11/24 09:18:13;;;;;;;;;;;;;;;12.02;100.00;98346.06;5042545;28;20004;-65
2022/11/24 09:20:39;;;;;;;;;;;;;;;11.70;100.00;98350.97;5043999;28;20043;-65
2022/11/24 09:23:04;;;;;;;;;;;;;;;11.80;100.00;98360.84;5042712;28;19924;-65
2022/11/24 09:25:29;;;;;;;;;;;;;;;11.12;100.00;98371.66;5043944;28;19921;-65
2022/11/24 09:27:56;;;;;;;;;;;;;;;11.98;100.00;98370.34;5043296;28;19923;-65
2022/11/24 09:30:22;;;;;;;;;;;;;;;11.90;100.00;98365.50;5043559;28;19927;-64
2022/11/24 09:32:47;;;;;;;;;;;;;;;11.71;100.00;98372.44;5045170;28;19923;-66
2022/11/24 09:35:12;;;;;;;;;;;;;;;12.07;100.00;98369.88;5046484;28;20274;-65
2022/11/24 09:37:37;;;;;;;;;;;;;;;11.93;100.00;98369.72;5043617;28;19966;-65
2022/11/24 09:40:03;;;;;;;;;;;;;;;12.31;100.00;98372.16;5053143;28;19932;-66
2022/11/24 09:42:30;;;;;;;;;;;;;;;11.44;100.00;98377.94;5044624;28;19928;-65
2022/11/24 09:44:59;;;;;;;;;;;;;;;11.92;100.00;98393.84;5044615;28;19928;-64
2022/11/24 09:47:33;;;;;;;;;;;;;;;11.86;100.00;98394.09;5047228;28;19921;-66
2022/11/24 09:50:07;;;;;;;;;;;;;;;11.42;100.00;98395.22;5045769;28;19923;-66
2022/11/24 09:52:51;;;;;;;;;;;;;;;11.67;100.00;98405.25;5040925;28;19920;-65
2022/11/24 09:55:21;;;;;;;;;;;;;;;11.89;100.00;98410.31;5044862;28;20317;-66
2022/11/24 09:57:48;;;;;;;;;;;;;;;11.91;100.00;98412.81;5042183;28;20023;-66
2022/11/24 10:00:13;;;;;;;;;;;;;;;12.20;100.00;98413.16;5043937;28;20003;-66
2022/11/24 10:02:38;;;;;;;;;;;;;;;12.33;100.00;98398.75;5040784;28;20016;-66
2022/11/24 10:05:04;;;;;;;;;;;;;;;12.23;100.00;98413.03;5042294;28;20506;-67
2022/11/24 10:07:29;;;;;;;;;;;;;;;12.54;100.00;98402.03;5042251;28;19990;-66
2022/11/24 10:10:10;;;;;;;;;;;;;;;12.68;100.00;98398.75;5041280;28;19969;-66
2022/11/24 10:13:08;;;;;;;;;;;;;;;12.31;100.00;98408.31;5039027;28;19927;-66
2022/11/24 10:15:52;;;;;;;;;;;;;;;12.09;100.00;98422.28;5020097;28;20000;-66
2022/11/24 10:18:23;;;;;;;;;;;;;;;12.23;100.00;98433.69;5044869;28;20348;-68
2022/11/24 10:20:51;;;;;;;;;;;;;;;11.84;100.00;98432.88;5043526;28;20616;-68
2022/11/24 10:23:20;;;;;;;;;;;;;;;11.48;100.00;98449.09;5045957;28;19916;-68
2022/11/24 10:25:58;;;;;;;;;;;;;;;11.52;100.00;98467.88;5044289;28;19925;-67
2022/11/24 10:28:26;;;;;;;;;;;;;;;11.95;100.00;98480.59;5047463;28;19971;-68
2022/11/24 10:30:51;;;;;;;;;;;;;;;12.18;100.00;98477.78;5046371;28;19966;-68
2022/11/24 10:33:17;;;;;;;;;;;;;;;11.95;100.00;98484.03;5045516;28;19948;-67
2022/11/24 10:35:47;;;;;;;;;;;;;;;12.18;100.00;98482.97;5044081;28;20013;-68
2022/11/24 10:38:15;;;;;;;;;;;;;;;12.18;100.00;98472.63;5044231;28;19943;-67
2022/11/24 10:40:41;;;;;;;;;;;;;;;11.93;100.00;98483.25;5042288;28;19935;-67
2022/11/24 10:43:10;;;;;;;;;;;;;;;12.11;100.00;98486.69;5044289;28;20023;-68
2022/11/24 10:45:36;;;;;;;;;;;;;;;11.84;100.00;98483.66;5045165;28;20014;-69
2022/11/24 10:48:02;;;;;;;;;;;;;;;12.10;100.00;98480.72;5047178;28;19920;-69
2022/11/24 10:50:31;;;;;;;;;;;;;;;11.73;100.00;98479.78;5046135;28;19916;-68
2022/11/24 10:52:59;;;;;;;;;;;;;;;12.09;100.00;98486.78;5045878;28;19916;-69
2022/11/24 10:55:25;;;;;;;;;;;;;;;11.73;100.00;98497.84;5049072;28;19974;-69
2022/11/24 10:57:50;;;;;;;;;;;;;;;12.17;100.00;98496.75;5046907;28;20439;-69
2022/11/24 11:00:18;;;;;;;;;;;;;;;12.06;100.00;98489.50;5049650;28;19917;-69
2022/11/24 11:02:43;;;;;;;;;;;;;;;11.55;100.00;98492.69;5047512;28;19917;-68
2022/11/24 11:05:44;;;;;;;;;;;;;;;11.85;100.00;98505.94;5048544;28;19923;-69
2022/11/24 11:08:13;;;;;;;;;;;;;;;11.90;100.00;98509.19;5041424;28;19920;-70
2022/11/24 11:10:38;;;;;;;;;;;;;;;11.83;100.00;98518.06;5048815;28;19916;-70
2022/11/24 11:13:39;;;;;;;;;;;;;;;12.11;100.00;98503.06;5051375;28;19959;-70
2022/11/24 11:16:12;;;;;;;;;;;;;;;11.76;100.00;98503.78;5037350;28;19918;-69
2022/11/24 11:18:38;;;;;;;;;;;;;;;12.38;100.00;98520.72;5051969;28;19921;-68
2022/11/24 11:21:03;;;;;;;;;;;;;;;12.25;100.00;98509.31;5046605;28;19927;-69
2022/11/24 11:23:33;;;;;;;;;;;;;;;12.23;100.00;98511.13;5048415;28;19916;-70
2022/11/24 11:26:18;;;;;;;;;;;;;;;12.21;100.00;98507.78;5051573;28;19916;-69
2022/11/24 11:28:55;;;;;;;;;;;;;;;12.02;100.00;98511.22;5051815;28;19978;-70
2022/11/24 11:31:20;;;;;;;;;;;;;;;12.48;100.00;98524.56;5050048;28;19924;-71
2022/11/24 11:33:59;;;;;;;;;;;;;;;12.16;100.00;98520.03;5085827;28;19983;-70
2022/11/24 11:36:25;;;;;;;;;;;;;;;12.24;100.00;98516.22;5053655;28;19920;-71
2022/11/24 11:38:50;;;;;;;;;;;;;;;12.21;100.00;98515.53;5065489;28;19916;-70
2022/11/24 11:41:19;;;;;;;;;;;;;;;12.32;100.00;98515.88;5052506;28;19926;-69
2022/11/24 11:43:44;;;;;;;;;;;;;;;12.44;100.00;98515.28;5052281;28;19920;-70
2022/11/24 11:46:16;;;;;;;;;;;;;;;12.68;100.00;98517.59;5064623;28;19920;-70
2022/11/24 11:48:43;;;;;;;;;;;;;;;12.55;100.00;98525.09;5051441;28;19916;-70
2022/11/24 11:51:09;;;;;;;;;;;;;;;12.49;100.00;98513.31;5045912;28;19916;-68
2022/11/24 11:53:43;;;;;;;;;;;;;;;12.76;100.00;98523.22;5047685;28;20267;-71
2022/11/24 11:56:23;;;;;;;;;;;;;;;12.68;100.00;98512.41;5047340;28;19946;-71
2022/11/24 11:59:07;;;;;;;;;;;;;;;12.77;100.00;98509.38;5049711;28;20036;-69
2022/11/24 12:01:51;;;;;;;;;;;;;;;12.72;100.00;98519.13;5055592;28;19981;-71
2022/11/24 12:04:25;;;;;;;;;;;;;;;12.49;100.00;98513.31;5056787;28;20453;-70
2022/11/24 12:06:53;;;;;;;;;;;;;;;12.94;100.00;98530.09;5055312;28;20004;-70
2022/11/24 12:09:27;;;;;;;;;;;;;;;12.82;100.00;98519.50;5054307;28;19934;-70
2022/11/24 12:12:11;;;;;;;;;;;;;;;12.76;100.00;98523.22;5053349;28;19923;-71
2022/11/24 12:14:55;;;;;;;;;;;;;;;12.22;100.00;98535.25;5056696;28;19936;-69
2022/11/24 12:17:25;;;;;;;;;;;;;;;12.70;100.00;98541.59;5059682;28;19921;-69
2022/11/24 12:19:50;;;;;;;;;;;;;;;13.19;100.00;98534.88;5056482;28;19916;-69
2022/11/24 12:22:34;;;;;;;;;;;;;;;12.48;100.00;98524.56;5056505;28;19932;-69
2022/11/24 12:25:05;;;;;;;;;;;;;;;12.44;100.00;98529.94;5051685;28;19960;-69
2022/11/24 12:27:49;;;;;;;;;;;;;;;12.83;100.00;98526.34;5052127;28;20517;-69
2022/11/24 12:30:15;;;;;;;;;;;;;;;13.09;100.00;98518.16;5051603;28;19927;-69
2022/11/24 12:32:44;;;;;;;;;;;;;;;12.96;100.00;98512.75;5049997;28;19925;-68
2022/11/24 12:35:28;;;;;;;;;;;;;;;12.87;100.00;98510.63;5055922;28;19913;-68
2022/11/24 12:38:05;;;;;;;;;;;;;;;13.24;100.00;98515.72;5051458;28;19916;-68
2022/11/24 12:40:49;;;;;;;;;;;;;;;13.08;100.00;98505.31;5050593;28;19921;-67